sensor_id;sensor_type;location;lat;lon;timestamp;pressure;altitude;pressure_sealevel;temperature;humidity
51999;BME280;38015;50.924;11.598;2022-12-18T00:01:31;100903.02;;;20.18;21.49
51999;BME280;38015;50.924;11.598;2022-12-18T00:04:01;100906.09;;;20.33;21.26
51999;BME280;38015;50.924;11.598;2022-12-18T00:06:32;100903.27;;;20.04;21.68
51999;BME280;38015;50.924;11.598;2022-12-18T00:09:03;100900.02;;;19.98;21.77
51999;BME280;38015;50.924;11.598;2022-12-18T00:11:32;100901.49;;;20.29;21.32
51999;BME280;38015;50.924;11.598;2022-12-18T00:14:02;100899.24;;;20.16;21.48
51999;BME280;38015;50.924;11.598;2022-12-18T00:16:33;100899.21;;;20.08;21.57
51999;BME280;38015;50.924;11.598;2022-12-18T00:19:05;100897.59;;;19.99;21.76
51999;BME280;38015;50.924;11.598;2022-12-18T00:21:34;100898.67;;;19.97;21.73
51999;BME280;38015;50.924;11.598;2022-12-18T00:24:05;100906.37;;;20.09;21.57
51999;BME280;38015;50.924;11.598;2022-12-18T00:26:36;100911.45;;;19.69;22.11
51999;BME280;38015;50.924;11.598;2022-12-18T00:29:09;100910.41;;;20.14;21.50
51999;BME280;38015;50.924;11.598;2022-12-18T00:31:37;100907.10;;;19.70;22.08
51999;BME280;38015;50.924;11.598;2022-12-18T00:34:06;100906.66;;;20.07;21.54
51999;BME280;38015;50.924;11.598;2022-12-18T00:36:36;100908.49;;;19.58;22.26
51999;BME280;38015;50.924;11.598;2022-12-18T00:39:07;100914.12;;;20.06;21.58
51999;BME280;38015;50.924;11.598;2022-12-18T00:41:37;100912.24;;;19.84;21.82
51999;BME280;38015;50.924;11.598;2022-12-18T00:44:10;100911.03;;;20.04;21.59
51999;BME280;38015;50.924;11.598;2022-12-18T00:46:38;100909.57;;;19.87;21.79
51999;BME280;38015;50.924;11.598;2022-12-18T00:49:09;100906.24;;;19.94;21.71
51999;BME280;38015;50.924;11.598;2022-12-18T00:51:39;100907.27;;;19.80;21.89
51999;BME280;38015;50.924;11.598;2022-12-18T00:54:11;100912.07;;;20.00;21.58
51999;BME280;38015;50.924;11.598;2022-12-18T00:56:40;100915.48;;;19.61;22.15
51999;BME280;38015;50.924;11.598;2022-12-18T00:59:11;100915.10;;;20.08;21.47
51999;BME280;38015;50.924;11.598;2022-12-18T01:01:41;100914.44;;;20.13;21.34
51999;BME280;38015;50.924;11.598;2022-12-18T01:04:12;100913.91;;;19.88;21.71
51999;BME280;38015;50.924;11.598;2022-12-18T01:06:42;100916.30;;;19.50;22.25
51999;BME280;38015;50.924;11.598;2022-12-18T01:09:13;100917.72;;;19.90;21.70
51999;BME280;38015;50.924;11.598;2022-12-18T01:11:43;100920.86;;;19.94;21.63
51999;BME280;38015;50.924;11.598;2022-12-18T01:14:14;100924.98;;;19.87;21.69
51999;BME280;38015;50.924;11.598;2022-12-18T01:16:45;100934.55;;;19.89;21.68
51999;BME280;38015;50.924;11.598;2022-12-18T01:19:15;100939.24;;;20.15;21.29
51999;BME280;38015;50.924;11.598;2022-12-18T01:21:46;100947.00;;;19.90;21.66
51999;BME280;38015;50.924;11.598;2022-12-18T01:24:16;100955.30;;;19.46;22.27
51999;BME280;38015;50.924;11.598;2022-12-18T01:26:47;100962.35;;;19.94;21.60
51999;BME280;38015;50.924;11.598;2022-12-18T01:29:18;100971.00;;;19.92;21.62
51999;BME280;38015;50.924;11.598;2022-12-18T01:31:48;100971.61;;;19.93;21.59
51999;BME280;38015;50.924;11.598;2022-12-18T01:34:19;100970.62;;;20.12;21.31
51999;BME280;38015;50.924;11.598;2022-12-18T01:36:50;100971.13;;;20.12;21.27
51999;BME280;38015;50.924;11.598;2022-12-18T01:39:20;100967.96;;;20.16;21.20
51999;BME280;38015;50.924;11.598;2022-12-18T01:41:51;100967.06;;;20.11;21.25
51999;BME280;38015;50.924;11.598;2022-12-18T01:46:52;100969.64;;;20.03;21.33
51999;BME280;38015;50.924;11.598;2022-12-18T01:49:22;100965.93;;;20.20;21.10
51999;BME280;38015;50.924;11.598;2022-12-18T01:51:53;100959.43;;;19.81;21.66
51999;BME280;38015;50.924;11.598;2022-12-18T01:54:24;100956.58;;;19.73;21.70
51999;BME280;38015;50.924;11.598;2022-12-18T01:56:54;100959.49;;;19.65;21.86
51999;BME280;38015;50.924;11.598;2022-12-18T01:59:25;100955.66;;;19.79;21.66
51999;BME280;38015;50.924;11.598;2022-12-18T02:01:56;100954.83;;;20.02;21.34
51999;BME280;38015;50.924;11.598;2022-12-18T02:04:27;100953.80;;;19.96;21.42
51999;BME280;38015;50.924;11.598;2022-12-18T02:07:03;100953.98;;;19.87;21.51
51999;BME280;38015;50.924;11.598;2022-12-18T02:09:31;100952.82;;;19.87;21.51
51999;BME280;38015;50.924;11.598;2022-12-18T02:12:01;100959.75;;;20.01;21.32
51999;BME280;38015;50.924;11.598;2022-12-18T02:14:34;100961.02;;;19.80;21.57
51999;BME280;38015;50.924;11.598;2022-12-18T02:17:01;100956.62;;;19.91;21.40
51999;BME280;38015;50.924;11.598;2022-12-18T02:19:39;100953.35;;;19.75;21.62
51999;BME280;38015;50.924;11.598;2022-12-18T02:22:07;100953.63;;;19.77;21.62
51999;BME280;38015;50.924;11.598;2022-12-18T02:24:35;100956.69;;;19.92;21.38
51999;BME280;38015;50.924;11.598;2022-12-18T02:27:04;100959.56;;;19.90;21.43
51999;BME280;38015;50.924;11.598;2022-12-18T02:29:34;100965.80;;;20.05;21.21
51999;BME280;38015;50.924;11.598;2022-12-18T02:32:02;100967.73;;;20.14;21.06
51999;BME280;38015;50.924;11.598;2022-12-18T02:34:34;100965.62;;;19.71;21.61
51999;BME280;38015;50.924;11.598;2022-12-18T02:37:08;100960.61;;;20.02;21.24
51999;BME280;38015;50.924;11.598;2022-12-18T02:39:34;100957.55;;;20.09;21.10
51999;BME280;38015;50.924;11.598;2022-12-18T02:42:03;100955.65;;;19.83;21.44
51999;BME280;38015;50.924;11.598;2022-12-18T02:44:32;100954.95;;;19.89;21.36
51999;BME280;38015;50.924;11.598;2022-12-18T02:47:03;100956.98;;;20.20;20.91
51999;BME280;38015;50.924;11.598;2022-12-18T02:49:39;100956.47;;;20.04;21.13
51999;BME280;38015;50.924;11.598;2022-12-18T02:52:09;100954.09;;;20.05;21.12
51999;BME280;38015;50.924;11.598;2022-12-18T02:54:43;100955.44;;;19.93;21.24
51999;BME280;38015;50.924;11.598;2022-12-18T02:57:11;100958.49;;;19.65;21.66
51999;BME280;38015;50.924;11.598;2022-12-18T02:59:38;100957.15;;;19.72;21.53
51999;BME280;38015;50.924;11.598;2022-12-18T03:02:10;100952.43;;;20.04;21.09
51999;BME280;38015;50.924;11.598;2022-12-18T03:04:40;100951.10;;;20.08;21.03
51999;BME280;38015;50.924;11.598;2022-12-18T03:07:11;100953.00;;;20.07;21.06
51999;BME280;38015;50.924;11.598;2022-12-18T03:09:42;100951.34;;;20.06;21.03
51999;BME280;38015;50.924;11.598;2022-12-18T03:12:09;100949.97;;;20.07;20.98
51999;BME280;38015;50.924;11.598;2022-12-18T03:14:38;100952.71;;;20.13;20.90
51999;BME280;38015;50.924;11.598;2022-12-18T03:17:11;100956.35;;;19.95;21.16
51999;BME280;38015;50.924;11.598;2022-12-18T03:19:38;100952.80;;;19.84;21.30
51999;BME280;38015;50.924;11.598;2022-12-18T03:22:10;100954.62;;;20.13;20.92
51999;BME280;38015;50.924;11.598;2022-12-18T03:24:40;100964.71;;;19.66;21.51
51999;BME280;38015;50.924;11.598;2022-12-18T03:27:13;100970.32;;;19.96;21.13
51999;BME280;38015;50.924;11.598;2022-12-18T03:29:42;100966.36;;;19.94;21.14
51999;BME280;38015;50.924;11.598;2022-12-18T03:32:13;100964.70;;;19.89;21.15
51999;BME280;38015;50.924;11.598;2022-12-18T03:34:42;100966.99;;;20.03;21.03
51999;BME280;38015;50.924;11.598;2022-12-18T03:37:12;100968.09;;;20.05;20.96
51999;BME280;38015;50.924;11.598;2022-12-18T03:39:42;100968.34;;;20.07;20.95
51999;BME280;38015;50.924;11.598;2022-12-18T03:42:16;100969.10;;;19.84;21.19
51999;BME280;38015;50.924;11.598;2022-12-18T03:44:48;100972.02;;;20.05;20.93
51999;BME280;38015;50.924;11.598;2022-12-18T03:47:14;100971.05;;;19.93;21.12
51999;BME280;38015;50.924;11.598;2022-12-18T03:49:47;100976.93;;;19.84;21.19
51999;BME280;38015;50.924;11.598;2022-12-18T03:52:18;100985.67;;;20.03;20.94
51999;BME280;38015;50.924;11.598;2022-12-18T03:54:45;100992.41;;;20.08;20.83
51999;BME280;38015;50.924;11.598;2022-12-18T03:57:18;100994.38;;;20.18;20.72
51999;BME280;38015;50.924;11.598;2022-12-18T03:59:47;100990.24;;;20.29;20.55
51999;BME280;38015;50.924;11.598;2022-12-18T04:02:16;100986.18;;;20.29;20.52
51999;BME280;38015;50.924;11.598;2022-12-18T04:04:48;100983.44;;;19.96;20.96
51999;BME280;38015;50.924;11.598;2022-12-18T04:07:17;100980.62;;;19.99;20.92
51999;BME280;38015;50.924;11.598;2022-12-18T04:09:54;100984.50;;;19.81;21.17
51999;BME280;38015;50.924;11.598;2022-12-18T04:12:19;100985.93;;;19.93;20.99
51999;BME280;38015;50.924;11.598;2022-12-18T04:14:49;100982.61;;;19.82;21.14
51999;BME280;38015;50.924;11.598;2022-12-18T04:17:19;100978.09;;;19.91;21.01
51999;BME280;38015;50.924;11.598;2022-12-18T04:19:50;100978.03;;;20.01;20.89
51999;BME280;38015;50.924;11.598;2022-12-18T04:22:20;100983.78;;;19.48;21.56
51999;BME280;38015;50.924;11.598;2022-12-18T04:24:50;100983.27;;;19.89;21.02
51999;BME280;38015;50.924;11.598;2022-12-18T04:27:21;100979.16;;;19.78;21.12
51999;BME280;38015;50.924;11.598;2022-12-18T04:29:51;100979.32;;;20.00;20.85
51999;BME280;38015;50.924;11.598;2022-12-18T04:32:21;100976.69;;;19.83;21.06
51999;BME280;38015;50.924;11.598;2022-12-18T04:34:52;100976.52;;;19.84;21.05
51999;BME280;38015;50.924;11.598;2022-12-18T04:37:25;100975.04;;;20.00;20.80
51999;BME280;38015;50.924;11.598;2022-12-18T04:39:53;100966.58;;;20.05;20.72
51999;BME280;38015;50.924;11.598;2022-12-18T04:42:23;100963.02;;;19.98;20.83
51999;BME280;38015;50.924;11.598;2022-12-18T04:44:54;100963.52;;;19.84;20.99
51999;BME280;38015;50.924;11.598;2022-12-18T04:47:24;100969.40;;;19.72;21.15
51999;BME280;38015;50.924;11.598;2022-12-18T04:49:54;100967.23;;;19.97;20.83
51999;BME280;38015;50.924;11.598;2022-12-18T04:52:25;100960.27;;;19.82;21.00
51999;BME280;38015;50.924;11.598;2022-12-18T04:54:55;100962.94;;;19.76;21.10
51999;BME280;38015;50.924;11.598;2022-12-18T04:57:25;100972.69;;;19.88;20.95
51999;BME280;38015;50.924;11.598;2022-12-18T04:59:56;100976.63;;;19.43;21.50
51999;BME280;38015;50.924;11.598;2022-12-18T05:02:27;100972.14;;;19.72;21.09
51999;BME280;38015;50.924;11.598;2022-12-18T05:04:57;100971.59;;;19.89;20.84
51999;BME280;38015;50.924;11.598;2022-12-18T05:07:27;100969.68;;;19.77;21.01
51999;BME280;38015;50.924;11.598;2022-12-18T05:09:58;100974.39;;;19.92;20.81
51999;BME280;38015;50.924;11.598;2022-12-18T05:12:29;100978.23;;;19.89;20.84
51999;BME280;38015;50.924;11.598;2022-12-18T05:14:59;100984.32;;;19.66;21.14
51999;BME280;38015;50.924;11.598;2022-12-18T05:17:30;100989.95;;;19.99;20.72
51999;BME280;38015;50.924;11.598;2022-12-18T05:20:00;100991.86;;;19.74;20.99
51999;BME280;38015;50.924;11.598;2022-12-18T05:22:31;100992.97;;;19.86;20.87
51999;BME280;38015;50.924;11.598;2022-12-18T05:25:01;100998.33;;;19.67;21.09
51999;BME280;38015;50.924;11.598;2022-12-18T05:27:32;101003.91;;;19.76;20.99
51999;BME280;38015;50.924;11.598;2022-12-18T05:30:03;101013.81;;;19.88;20.81
51999;BME280;38015;50.924;11.598;2022-12-18T05:32:33;101010.27;;;20.00;20.61
51999;BME280;38015;50.924;11.598;2022-12-18T05:35:05;100996.63;;;19.98;20.65
51999;BME280;38015;50.924;11.598;2022-12-18T05:37:37;100987.21;;;19.87;20.78
51999;BME280;38015;50.924;11.598;2022-12-18T05:40:06;100986.75;;;19.88;20.78
51999;BME280;38015;50.924;11.598;2022-12-18T05:42:35;100986.39;;;19.83;20.83
51999;BME280;38015;50.924;11.598;2022-12-18T05:45:06;100992.20;;;19.73;20.95
51999;BME280;38015;50.924;11.598;2022-12-18T05:47:36;101000.59;;;19.59;21.12
51999;BME280;38015;50.924;11.598;2022-12-18T05:50:07;101001.10;;;19.55;21.17
51999;BME280;38015;50.924;11.598;2022-12-18T05:52:37;100994.51;;;19.75;20.97
51999;BME280;38015;50.924;11.598;2022-12-18T05:55:07;100997.48;;;19.84;20.77
51999;BME280;38015;50.924;11.598;2022-12-18T05:57:38;101003.90;;;19.70;20.97
51999;BME280;38015;50.924;11.598;2022-12-18T06:00:10;101009.48;;;19.88;20.71
51999;BME280;38015;50.924;11.598;2022-12-18T06:02:39;101014.15;;;19.88;20.70
51999;BME280;38015;50.924;11.598;2022-12-18T06:05:09;101012.89;;;19.64;21.00
51999;BME280;38015;50.924;11.598;2022-12-18T06:07:40;101017.01;;;19.42;21.27
51999;BME280;38015;50.924;11.598;2022-12-18T06:10:11;101010.87;;;19.85;20.74
51999;BME280;38015;50.924;11.598;2022-12-18T06:12:40;101009.28;;;19.53;21.14
51999;BME280;38015;50.924;11.598;2022-12-18T06:15:11;101002.96;;;19.72;20.87
51999;BME280;38015;50.924;11.598;2022-12-18T06:17:41;101005.71;;;19.97;20.54
51999;BME280;38015;50.924;11.598;2022-12-18T06:20:12;101013.07;;;19.88;20.61
51999;BME280;38015;50.924;11.598;2022-12-18T06:22:43;101022.90;;;19.69;20.86
51999;BME280;38015;50.924;11.598;2022-12-18T06:25:13;101020.33;;;19.86;20.68
51999;BME280;38015;50.924;11.598;2022-12-18T06:27:44;101017.23;;;19.94;20.55
51999;BME280;38015;50.924;11.598;2022-12-18T06:30:15;101020.73;;;19.97;20.48
51999;BME280;38015;50.924;11.598;2022-12-18T06:32:45;101025.86;;;20.05;20.36
51999;BME280;38015;50.924;11.598;2022-12-18T06:35:15;101030.21;;;19.99;20.43
51999;BME280;38015;50.924;11.598;2022-12-18T06:37:47;101028.91;;;20.00;20.39
51999;BME280;38015;50.924;11.598;2022-12-18T06:40:16;101027.81;;;19.98;20.45
51999;BME280;38015;50.924;11.598;2022-12-18T06:42:46;101028.18;;;19.89;20.56
51999;BME280;38015;50.924;11.598;2022-12-18T06:45:16;101022.51;;;19.73;20.75
51999;BME280;38015;50.924;11.598;2022-12-18T06:47:47;101018.04;;;19.72;20.79
51999;BME280;38015;50.924;11.598;2022-12-18T06:50:17;101021.46;;;19.81;20.67
51999;BME280;38015;50.924;11.598;2022-12-18T06:52:48;101023.51;;;19.78;20.69
51999;BME280;38015;50.924;11.598;2022-12-18T06:55:19;101022.59;;;19.89;20.53
51999;BME280;38015;50.924;11.598;2022-12-18T06:57:49;101026.58;;;19.82;20.63
51999;BME280;38015;50.924;11.598;2022-12-18T07:00:19;101029.62;;;19.78;20.66
51999;BME280;38015;50.924;11.598;2022-12-18T07:02:50;101025.85;;;20.04;20.29
51999;BME280;38015;50.924;11.598;2022-12-18T07:05:21;101027.77;;;19.67;20.73
51999;BME280;38015;50.924;11.598;2022-12-18T07:07:51;101027.85;;;19.78;20.61
51999;BME280;38015;50.924;11.598;2022-12-18T07:10:21;101021.48;;;19.63;20.77
51999;BME280;38015;50.924;11.598;2022-12-18T07:12:51;101015.29;;;19.74;20.67
51999;BME280;38015;50.924;11.598;2022-12-18T07:15:22;101011.58;;;19.92;20.37
51999;BME280;38015;50.924;11.598;2022-12-18T07:17:52;101012.90;;;20.02;20.24
51999;BME280;38015;50.924;11.598;2022-12-18T07:20:23;101018.14;;;19.95;20.35
51999;BME280;38015;50.924;11.598;2022-12-18T07:22:53;101029.04;;;19.82;20.53
51999;BME280;38015;50.924;11.598;2022-12-18T07:25:23;101026.09;;;19.59;20.80
51999;BME280;38015;50.924;11.598;2022-12-18T07:27:54;101027.20;;;19.99;20.27
51999;BME280;38015;50.924;11.598;2022-12-18T07:30:25;101033.59;;;19.72;20.61
51999;BME280;38015;50.924;11.598;2022-12-18T07:32:55;101032.28;;;19.53;20.87
51999;BME280;38015;50.924;11.598;2022-12-18T07:35:25;101028.86;;;19.54;20.89
51999;BME280;38015;50.924;11.598;2022-12-18T07:37:55;101030.18;;;19.85;20.47
51999;BME280;38015;50.924;11.598;2022-12-18T07:40:26;101034.54;;;20.13;20.05
51999;BME280;38015;50.924;11.598;2022-12-18T07:42:57;101042.10;;;19.88;20.33
51999;BME280;38015;50.924;11.598;2022-12-18T07:45:27;101047.88;;;19.82;20.44
51999;BME280;38015;50.924;11.598;2022-12-18T07:47:58;101048.27;;;19.50;20.84
51999;BME280;38015;50.924;11.598;2022-12-18T07:50:28;101051.61;;;19.90;20.34
51999;BME280;38015;50.924;11.598;2022-12-18T07:52:58;101054.35;;;19.76;20.51
51999;BME280;38015;50.924;11.598;2022-12-18T07:55:29;101057.60;;;19.90;20.31
51999;BME280;38015;50.924;11.598;2022-12-18T07:58:01;101055.92;;;19.80;20.42
51999;BME280;38015;50.924;11.598;2022-12-18T08:00:29;101061.13;;;19.79;20.43
51999;BME280;38015;50.924;11.598;2022-12-18T08:02:59;101063.72;;;19.42;20.94
51999;BME280;38015;50.924;11.598;2022-12-18T08:05:29;101070.18;;;19.68;20.61
51999;BME280;38015;50.924;11.598;2022-12-18T08:08:00;101077.48;;;19.83;20.40
51999;BME280;38015;50.924;11.598;2022-12-18T08:10:31;101079.05;;;19.82;20.39
51999;BME280;38015;50.924;11.598;2022-12-18T08:13:02;101078.24;;;20.07;20.06
51999;BME280;38015;50.924;11.598;2022-12-18T08:15:32;101075.26;;;19.83;20.31
51999;BME280;38015;50.924;11.598;2022-12-18T08:18:02;101076.76;;;19.76;20.42
51999;BME280;38015;50.924;11.598;2022-12-18T08:20:33;101075.75;;;19.76;20.45
51999;BME280;38015;50.924;11.598;2022-12-18T08:23:04;101080.24;;;19.98;20.13
51999;BME280;38015;50.924;11.598;2022-12-18T08:25:34;101083.81;;;19.60;20.67
51999;BME280;38015;50.924;11.598;2022-12-18T08:28:04;101086.46;;;19.53;20.71
51999;BME280;38015;50.924;11.598;2022-12-18T08:30:35;101087.92;;;19.52;20.76
51999;BME280;38015;50.924;11.598;2022-12-18T08:33:06;101089.99;;;19.92;20.21
51999;BME280;38015;50.924;11.598;2022-12-18T08:35:36;101089.56;;;19.64;20.60
51999;BME280;38015;50.924;11.598;2022-12-18T08:38:06;101084.39;;;19.89;20.24
51999;BME280;38015;50.924;11.598;2022-12-18T08:40:36;101075.29;;;19.54;20.68
51999;BME280;38015;50.924;11.598;2022-12-18T08:43:07;101075.11;;;19.57;20.64
51999;BME280;38015;50.924;11.598;2022-12-18T08:45:37;101075.58;;;19.79;20.34
51999;BME280;38015;50.924;11.598;2022-12-18T08:48:08;101073.29;;;19.90;20.22
51999;BME280;38015;50.924;11.598;2022-12-18T08:50:39;101072.04;;;19.88;20.24
51999;BME280;38015;50.924;11.598;2022-12-18T08:53:09;101067.00;;;19.80;20.32
51999;BME280;38015;50.924;11.598;2022-12-18T08:55:39;101065.20;;;19.90;20.19
51999;BME280;38015;50.924;11.598;2022-12-18T08:58:10;101064.02;;;19.88;20.21
51999;BME280;38015;50.924;11.598;2022-12-18T09:00:40;101061.20;;;19.50;20.72
51999;BME280;38015;50.924;11.598;2022-12-18T09:03:12;101057.60;;;19.12;21.23
51999;BME280;38015;50.924;11.598;2022-12-18T09:05:42;101055.58;;;19.44;20.85
51999;BME280;38015;50.924;11.598;2022-12-18T09:08:12;101049.82;;;19.12;21.22
51999;BME280;38015;50.924;11.598;2022-12-18T09:10:45;101045.70;;;19.36;20.98
51999;BME280;38015;50.924;11.598;2022-12-18T09:13:13;101045.99;;;19.58;20.70
51999;BME280;38015;50.924;11.598;2022-12-18T09:15:43;101048.47;;;19.09;21.33
51999;BME280;38015;50.924;11.598;2022-12-18T09:18:14;101049.44;;;19.26;21.10
51999;BME280;38015;50.924;11.598;2022-12-18T09:20:44;101052.47;;;19.32;21.04
51999;BME280;38015;50.924;11.598;2022-12-18T09:23:14;101052.50;;;19.31;21.06
51999;BME280;38015;50.924;11.598;2022-12-18T09:25:45;101051.58;;;19.53;20.74
51999;BME280;38015;50.924;11.598;2022-12-18T09:28:17;101049.17;;;19.28;21.07
51999;BME280;38015;50.924;11.598;2022-12-18T09:30:47;101051.38;;;19.45;20.80
51999;BME280;38015;50.924;11.598;2022-12-18T09:33:16;101046.45;;;19.60;20.64
51999;BME280;38015;50.924;11.598;2022-12-18T09:35:46;101044.36;;;19.42;20.85
51999;BME280;38015;50.924;11.598;2022-12-18T09:38:19;101042.26;;;19.50;20.78
51999;BME280;38015;50.924;11.598;2022-12-18T09:40:50;101033.32;;;19.53;20.73
51999;BME280;38015;50.924;11.598;2022-12-18T09:43:19;101025.88;;;19.70;20.45
51999;BME280;38015;50.924;11.598;2022-12-18T09:45:51;101026.49;;;19.63;20.57
51999;BME280;38015;50.924;11.598;2022-12-18T09:48:21;101017.29;;;19.60;20.54
51999;BME280;38015;50.924;11.598;2022-12-18T09:50:50;101008.71;;;19.53;20.64
51999;BME280;38015;50.924;11.598;2022-12-18T09:53:24;101006.27;;;19.38;20.86
51999;BME280;38015;50.924;11.598;2022-12-18T09:55:51;101010.20;;;19.49;20.66
51999;BME280;38015;50.924;11.598;2022-12-18T09:58:26;101005.93;;;19.38;20.83
51999;BME280;38015;50.924;11.598;2022-12-18T10:00:51;101001.56;;;19.53;20.66
51999;BME280;38015;50.924;11.598;2022-12-18T10:03:22;101003.49;;;19.44;20.78
51999;BME280;38015;50.924;11.598;2022-12-18T10:05:59;100996.39;;;18.92;21.48
51999;BME280;38015;50.924;11.598;2022-12-18T10:08:26;100999.11;;;19.37;20.89
51999;BME280;38015;50.924;11.598;2022-12-18T10:10:55;101007.90;;;19.47;20.81
51999;BME280;38015;50.924;11.598;2022-12-18T10:13:29;100998.76;;;19.32;21.00
51999;BME280;38015;50.924;11.598;2022-12-18T10:16:03;100997.91;;;19.35;20.95
51999;BME280;38015;50.924;11.598;2022-12-18T10:18:36;100994.97;;;19.45;20.80
51999;BME280;38015;50.924;11.598;2022-12-18T10:20:58;100990.66;;;19.23;21.10
51999;BME280;38015;50.924;11.598;2022-12-18T10:23:28;100988.73;;;19.36;20.96
51999;BME280;38015;50.924;11.598;2022-12-18T10:26:02;100983.47;;;19.57;20.65
51999;BME280;38015;50.924;11.598;2022-12-18T10:28:26;100987.05;;;19.51;20.76
51999;BME280;38015;50.924;11.598;2022-12-18T10:30:56;100974.45;;;18.88;21.56
51999;BME280;38015;50.924;11.598;2022-12-18T10:33:29;100969.85;;;19.56;20.70
51999;BME280;38015;50.924;11.598;2022-12-18T10:35:57;100970.24;;;19.40;20.90
51999;BME280;38015;50.924;11.598;2022-12-18T10:38:31;100963.36;;;19.67;20.53
51999;BME280;38015;50.924;11.598;2022-12-18T10:40:59;100967.75;;;19.71;20.44
51999;BME280;38015;50.924;11.598;2022-12-18T10:43:29;100966.80;;;19.60;20.58
51999;BME280;38015;50.924;11.598;2022-12-18T10:46:01;100966.60;;;19.79;20.31
51999;BME280;38015;50.924;11.598;2022-12-18T10:48:30;100970.99;;;19.79;20.31
51999;BME280;38015;50.924;11.598;2022-12-18T10:51:00;100973.20;;;19.68;20.49
51999;BME280;38015;50.924;11.598;2022-12-18T10:53:31;100976.38;;;19.57;20.62
51999;BME280;38015;50.924;11.598;2022-12-18T10:56:03;100984.85;;;19.84;20.26
51999;BME280;38015;50.924;11.598;2022-12-18T10:58:31;100988.39;;;19.80;20.27
51999;BME280;38015;50.924;11.598;2022-12-18T11:01:04;100990.85;;;19.61;20.53
51999;BME280;38015;50.924;11.598;2022-12-18T11:03:33;100989.16;;;19.70;20.40
51999;BME280;38015;50.924;11.598;2022-12-18T11:06:04;100987.64;;;20.06;19.95
51999;BME280;38015;50.924;11.598;2022-12-18T11:08:32;100982.94;;;19.82;20.26
51999;BME280;38015;50.924;11.598;2022-12-18T11:11:21;100985.07;;;19.77;20.33
51999;BME280;38015;50.924;11.598;2022-12-18T11:13:33;100986.23;;;19.93;20.09
51999;BME280;38015;50.924;11.598;2022-12-18T11:16:04;100985.75;;;19.68;20.44
51999;BME280;38015;50.924;11.598;2022-12-18T11:18:35;100988.80;;;19.34;20.92
51999;BME280;38015;50.924;11.598;2022-12-18T11:21:07;100981.78;;;19.68;20.54
51999;BME280;38015;50.924;11.598;2022-12-18T11:23:35;100973.65;;;19.69;20.47
51999;BME280;38015;50.924;11.598;2022-12-18T11:26:05;100965.99;;;19.18;21.17
51999;BME280;38015;50.924;11.598;2022-12-18T11:28:38;100965.91;;;19.24;21.13
51999;BME280;38015;50.924;11.598;2022-12-18T11:31:12;100972.76;;;19.24;21.17
51999;BME280;38015;50.924;11.598;2022-12-18T11:33:38;100980.89;;;19.16;21.26
51999;BME280;38015;50.924;11.598;2022-12-18T11:36:08;100977.53;;;19.49;20.84
51999;BME280;38015;50.924;11.598;2022-12-18T11:38:39;100974.37;;;19.45;20.88
51999;BME280;38015;50.924;11.598;2022-12-18T11:41:15;100972.16;;;19.50;20.79
51999;BME280;38015;50.924;11.598;2022-12-18T11:43:48;100977.80;;;19.32;21.04
51999;BME280;38015;50.924;11.598;2022-12-18T11:46:12;100977.19;;;19.25;21.17
51999;BME280;38015;50.924;11.598;2022-12-18T11:48:44;100964.81;;;19.50;20.87
51999;BME280;38015;50.924;11.598;2022-12-18T11:51:13;100961.91;;;19.43;20.94
51999;BME280;38015;50.924;11.598;2022-12-18T11:53:40;100956.22;;;19.35;21.03
51999;BME280;38015;50.924;11.598;2022-12-18T11:56:26;100954.26;;;19.14;21.35
51999;BME280;38015;50.924;11.598;2022-12-18T11:58:47;100947.84;;;19.46;20.88
51999;BME280;38015;50.924;11.598;2022-12-18T12:01:22;100939.22;;;19.41;20.96
51999;BME280;38015;50.924;11.598;2022-12-18T12:03:56;100926.25;;;19.29;21.14
51999;BME280;38015;50.924;11.598;2022-12-18T12:06:19;100924.29;;;19.12;21.38
51999;BME280;38015;50.924;11.598;2022-12-18T12:08:55;100912.76;;;19.46;20.92
51999;BME280;38015;50.924;11.598;2022-12-18T12:11:19;100907.66;;;19.70;20.61
51999;BME280;38015;50.924;11.598;2022-12-18T12:14:01;100910.70;;;19.43;20.97
51999;BME280;38015;50.924;11.598;2022-12-18T12:16:18;100919.01;;;19.26;21.24
51999;BME280;38015;50.924;11.598;2022-12-18T12:19:00;100918.81;;;19.37;21.07
51999;BME280;38015;50.924;11.598;2022-12-18T12:21:19;100910.28;;;19.58;20.81
51999;BME280;38015;50.924;11.598;2022-12-18T12:23:50;100907.41;;;19.59;20.77
51999;BME280;38015;50.924;11.598;2022-12-18T12:26:21;100910.01;;;19.51;20.95
51999;BME280;38015;50.924;11.598;2022-12-18T12:28:59;100903.77;;;19.31;21.20
51999;BME280;38015;50.924;11.598;2022-12-18T12:31:25;100897.50;;;19.52;20.89
51999;BME280;38015;50.924;11.598;2022-12-18T12:33:51;100893.83;;;19.47;21.00
51999;BME280;38015;50.924;11.598;2022-12-18T12:36:25;100892.21;;;19.67;20.72
51999;BME280;38015;50.924;11.598;2022-12-18T12:38:52;100891.43;;;19.43;21.01
51999;BME280;38015;50.924;11.598;2022-12-18T12:41:21;100890.76;;;19.47;21.00
51999;BME280;38015;50.924;11.598;2022-12-18T12:43:55;100896.93;;;19.44;21.00
51999;BME280;38015;50.924;11.598;2022-12-18T12:46:21;100898.26;;;19.53;20.89
51999;BME280;38015;50.924;11.598;2022-12-18T12:48:52;100892.35;;;19.35;21.17
51999;BME280;38015;50.924;11.598;2022-12-18T12:51:23;100890.10;;;19.50;20.99
51999;BME280;38015;50.924;11.598;2022-12-18T12:53:52;100886.73;;;19.17;21.44
51999;BME280;38015;50.924;11.598;2022-12-18T12:56:22;100886.41;;;19.52;21.00
51999;BME280;38015;50.924;11.598;2022-12-18T12:58:58;100881.93;;;19.26;21.33